sensor_id;sensor_type;location;lat;lon;timestamp;pressure;altitude;pressure_sealevel;temperature;humidity
78623;BME280;67943;54.412;9.502;2023-02-23T00:00:50;101053.94;;;7.80;85.08
78623;BME280;67943;54.412;9.502;2023-02-23T00:05:51;101056.63;;;7.79;85.18
78623;BME280;67943;54.412;9.502;2023-02-23T00:10:52;101054.00;;;7.77;85.18
78623;BME280;67943;54.412;9.502;2023-02-23T00:15:57;101063.53;;;7.83;84.98
78623;BME280;67943;54.412;9.502;2023-02-23T00:20:57;101059.19;;;7.80;85.11
78623;BME280;67943;54.412;9.502;2023-02-23T00:25:58;101067.09;;;7.76;85.15
78623;BME280;67943;54.412;9.502;2023-02-23T00:31:01;101067.13;;;7.70;85.33
78623;BME280;67943;54.412;9.502;2023-02-23T00:36:03;101061.00;;;7.72;85.26
78623;BME280;67943;54.412;9.502;2023-02-23T00:41:06;101063.63;;;7.71;85.30
78623;BME280;67943;54.412;9.502;2023-02-23T00:46:06;101063.63;;;7.75;85.47
78623;BME280;67943;54.412;9.502;2023-02-23T00:51:07;101060.94;;;7.80;85.11
78623;BME280;67943;54.412;9.502;2023-02-23T00:56:10;101054.03;;;7.71;85.53
78623;BME280;67943;54.412;9.502;2023-02-23T01:01:12;101052.28;;;7.69;85.78
78623;BME280;67943;54.412;9.502;2023-02-23T01:06:13;101047.88;;;7.77;85.47
78623;BME280;67943;54.412;9.502;2023-02-23T01:11:17;101049.69;;;7.69;85.55
78623;BME280;67943;54.412;9.502;2023-02-23T01:16:21;101049.66;;;7.75;85.53
78623;BME280;67943;54.412;9.502;2023-02-23T01:21:23;101041.81;;;7.72;85.53
78623;BME280;67943;54.412;9.502;2023-02-23T01:26:26;101033.91;;;7.79;85.27
78623;BME280;67943;54.412;9.502;2023-02-23T01:31:29;101026.09;;;7.72;85.62
78623;BME280;67943;54.412;9.502;2023-02-23T01:36:33;101026.94;;;7.77;85.13
78623;BME280;67943;54.412;9.502;2023-02-23T01:41:35;101026.00;;;7.81;85.14
78623;BME280;67943;54.412;9.502;2023-02-23T01:46:38;101019.13;;;7.69;85.22
78623;BME280;67943;54.412;9.502;2023-02-23T01:51:41;101022.63;;;7.64;85.61
78623;BME280;67943;54.412;9.502;2023-02-23T01:56:46;101025.22;;;7.70;85.70
78623;BME280;67943;54.412;9.502;2023-02-23T02:01:57;101020.00;;;7.67;85.46
78623;BME280;67943;54.412;9.502;2023-02-23T02:06:57;101016.47;;;7.77;85.39
78623;BME280;67943;54.412;9.502;2023-02-23T02:12:00;101029.50;;;7.80;85.31
78623;BME280;67943;54.412;9.502;2023-02-23T02:27:37;101037.50;;;7.62;85.64
78623;BME280;67943;54.412;9.502;2023-02-23T02:38:04;101022.66;;;7.62;85.83
78623;BME280;67943;54.412;9.502;2023-02-23T02:43:14;101022.56;;;7.76;85.61
78623;BME280;67943;54.412;9.502;2023-02-23T02:48:32;101014.81;;;7.59;85.96
78623;BME280;67943;54.412;9.502;2023-02-23T02:59:19;101009.50;;;7.70;85.82
78623;BME280;67943;54.412;9.502;2023-02-23T03:04:43;101009.47;;;7.76;85.61
78623;BME280;67943;54.412;9.502;2023-02-23T03:10:13;101014.69;;;7.79;85.49
78623;BME280;67943;54.412;9.502;2023-02-23T03:15:42;101017.31;;;7.77;85.54
78623;BME280;67943;54.412;9.502;2023-02-23T03:21:15;101011.25;;;7.71;85.76
78623;BME280;67943;54.412;9.502;2023-02-23T03:27:04;101015.56;;;7.79;85.76
78623;BME280;67943;54.412;9.502;2023-02-23T03:32:31;101014.78;;;7.67;86.19
78623;BME280;67943;54.412;9.502;2023-02-23T03:38:01;101015.63;;;7.69;86.33
78623;BME280;67943;54.412;9.502;2023-02-23T03:43:33;101019.09;;;7.74;86.59
78623;BME280;67943;54.412;9.502;2023-02-23T03:48:56;101013.88;;;7.69;86.54
78623;BME280;67943;54.412;9.502;2023-02-23T03:54:26;101028.69;;;7.78;86.14
78623;BME280;67943;54.412;9.502;2023-02-23T03:59:54;101024.34;;;7.72;86.39
78623;BME280;67943;54.412;9.502;2023-02-23T04:05:21;101023.38;;;7.84;86.70
78623;BME280;67943;54.412;9.502;2023-02-23T04:10:46;101024.31;;;7.77;86.74
78623;BME280;67943;54.412;9.502;2023-02-23T04:16:09;101035.66;;;7.76;87.01
78623;BME280;67943;54.412;9.502;2023-02-23T04:21:09;101033.06;;;7.74;87.10
78623;BME280;67943;54.412;9.502;2023-02-23T04:26:10;101031.31;;;7.75;87.03
78623;BME280;67943;54.412;9.502;2023-02-23T04:31:10;101025.19;;;7.77;86.86
78623;BME280;67943;54.412;9.502;2023-02-23T04:36:11;101026.88;;;7.83;85.70
78623;BME280;67943;54.412;9.502;2023-02-23T04:41:11;101025.19;;;7.76;85.58
78623;BME280;67943;54.412;9.502;2023-02-23T04:46:11;101017.44;;;7.59;85.74
78623;BME280;67943;54.412;9.502;2023-02-23T04:51:12;101021.75;;;7.65;85.67
78623;BME280;67943;54.412;9.502;2023-02-23T04:56:12;101017.44;;;7.53;85.83
78623;BME280;67943;54.412;9.502;2023-02-23T05:01:22;101028.84;;;7.51;85.78
78623;BME280;67943;54.412;9.502;2023-02-23T05:06:22;101026.22;;;7.49;85.85
78623;BME280;67943;54.412;9.502;2023-02-23T05:11:23;101026.25;;;7.48;85.94
78623;BME280;67943;54.412;9.502;2023-02-23T05:16:25;101020.13;;;7.45;86.31
78623;BME280;67943;54.412;9.502;2023-02-23T05:21:26;101025.38;;;7.45;86.29
78623;BME280;67943;54.412;9.502;2023-02-23T05:26:26;101011.41;;;7.43;86.40
78623;BME280;67943;54.412;9.502;2023-02-23T05:31:27;101016.69;;;7.31;86.40
78623;BME280;67943;54.412;9.502;2023-02-23T05:36:28;101025.41;;;7.39;86.62
78623;BME280;67943;54.412;9.502;2023-02-23T05:41:28;101005.28;;;7.48;85.84
78623;BME280;67943;54.412;9.502;2023-02-23T05:46:29;101009.69;;;7.41;86.00
78623;BME280;67943;54.412;9.502;2023-02-23T05:51:31;101014.03;;;7.47;85.73
78623;BME280;67943;54.412;9.502;2023-02-23T05:56:32;101007.00;;;7.52;85.60
78623;BME280;67943;54.412;9.502;2023-02-23T06:01:41;101013.16;;;7.41;85.34
78623;BME280;67943;54.412;9.502;2023-02-23T06:06:42;101008.84;;;7.33;85.48
78623;BME280;67943;54.412;9.502;2023-02-23T06:11:42;101007.97;;;7.32;85.81
78623;BME280;67943;54.412;9.502;2023-02-23T06:16:43;101028.91;;;7.32;85.80
78623;BME280;67943;54.412;9.502;2023-02-23T06:21:44;101044.63;;;7.32;85.77
78623;BME280;67943;54.412;9.502;2023-02-23T06:26:45;101040.28;;;7.28;85.90
78623;BME280;67943;54.412;9.502;2023-02-23T06:31:51;101046.38;;;7.26;85.73
78623;BME280;67943;54.412;9.502;2023-02-23T06:36:51;101049.06;;;7.18;85.66
78623;BME280;67943;54.412;9.502;2023-02-23T06:41:52;101040.34;;;7.19;85.84
78623;BME280;67943;54.412;9.502;2023-02-23T06:46:52;101042.97;;;7.15;85.85
78623;BME280;67943;54.412;9.502;2023-02-23T06:51:52;101063.06;;;7.00;85.73
78623;BME280;67943;54.412;9.502;2023-02-23T06:56:53;101056.06;;;7.01;85.59
78623;BME280;67943;54.412;9.502;2023-02-23T07:02:03;101068.28;;;7.00;85.10
78623;BME280;67943;54.412;9.502;2023-02-23T07:07:05;101065.72;;;6.93;85.02
78623;BME280;67943;54.412;9.502;2023-02-23T07:12:05;101073.53;;;6.97;84.77
78623;BME280;67943;54.412;9.502;2023-02-23T07:17:05;101082.22;;;6.99;84.75
78623;BME280;67943;54.412;9.502;2023-02-23T07:22:06;101084.84;;;6.98;84.91
78623;BME280;67943;54.412;9.502;2023-02-23T07:27:07;101092.72;;;6.98;84.72
78623;BME280;67943;54.412;9.502;2023-02-23T07:32:07;101101.41;;;7.03;84.37
78623;BME280;67943;54.412;9.502;2023-02-23T07:37:08;101100.53;;;7.04;84.16
78623;BME280;67943;54.412;9.502;2023-02-23T07:42:08;101100.53;;;7.04;84.14
78623;BME280;67943;54.412;9.502;2023-02-23T07:47:09;101107.50;;;7.13;84.09
78623;BME280;67943;54.412;9.502;2023-02-23T07:52:10;101104.91;;;7.11;83.80
78623;BME280;67943;54.412;9.502;2023-02-23T07:57:10;101112.75;;;7.14;83.90
78623;BME280;67943;54.412;9.502;2023-02-23T08:02:12;101119.72;;;7.18;83.58
78623;BME280;67943;54.412;9.502;2023-02-23T08:07:13;101120.59;;;7.13;83.36
78623;BME280;67943;54.412;9.502;2023-02-23T08:12:13;101118.84;;;7.07;83.68
78623;BME280;67943;54.412;9.502;2023-02-23T08:17:14;101123.19;;;7.20;83.99
78623;BME280;67943;54.412;9.502;2023-02-23T08:22:15;101126.69;;;7.18;83.46
78623;BME280;67943;54.412;9.502;2023-02-23T08:27:15;101132.75;;;7.29;83.26
78623;BME280;67943;54.412;9.502;2023-02-23T08:32:16;101131.00;;;7.32;83.06
78623;BME280;67943;54.412;9.502;2023-02-23T08:37:16;101129.28;;;7.22;82.87
78623;BME280;67943;54.412;9.502;2023-02-23T08:42:17;101131.88;;;7.28;82.56
78623;BME280;67943;54.412;9.502;2023-02-23T08:47:17;101135.34;;;7.36;81.97
78623;BME280;67943;54.412;9.502;2023-02-23T08:52:22;101138.84;;;7.29;81.47
78623;BME280;67943;54.412;9.502;2023-02-23T08:57:24;101134.50;;;7.24;81.19
78623;BME280;67943;54.412;9.502;2023-02-23T09:02:26;101135.38;;;7.27;81.16
78623;BME280;67943;54.412;9.502;2023-02-23T09:07:27;101134.50;;;7.27;80.20
78623;BME280;67943;54.412;9.502;2023-02-23T09:12:27;101141.47;;;7.28;80.49
78623;BME280;67943;54.412;9.502;2023-02-23T09:17:28;101136.19;;;7.49;79.67
78623;BME280;67943;54.412;9.502;2023-02-23T09:22:28;101138.81;;;7.46;79.25
78623;BME280;67943;54.412;9.502;2023-02-23T09:27:29;101137.97;;;7.42;79.38
78623;BME280;67943;54.412;9.502;2023-02-23T09:32:29;101142.31;;;7.43;79.40
78623;BME280;67943;54.412;9.502;2023-02-23T09:37:29;101145.75;;;7.55;79.58
78623;BME280;67943;54.412;9.502;2023-02-23T09:42:39;101136.97;;;7.66;79.59
78623;BME280;67943;54.412;9.502;2023-02-23T09:58:39;101144.81;;;7.77;81.00
78623;BME280;67943;54.412;9.502;2023-02-23T10:04:13;101145.69;;;7.79;81.31
78623;BME280;67943;54.412;9.502;2023-02-23T10:09:42;101149.97;;;7.89;81.39
78623;BME280;67943;54.412;9.502;2023-02-23T10:15:05;101152.47;;;8.10;80.62
78623;BME280;67943;54.412;9.502;2023-02-23T10:25:34;101150.69;;;8.16;79.50
78623;BME280;67943;54.412;9.502;2023-02-23T10:30:36;101157.75;;;8.07;78.76
78623;BME280;67943;54.412;9.502;2023-02-23T10:35:37;101159.41;;;8.21;78.16
78623;BME280;67943;54.412;9.502;2023-02-23T10:40:38;101160.31;;;8.10;77.57
78623;BME280;67943;54.412;9.502;2023-02-23T10:45:44;101158.53;;;8.20;77.55
78623;BME280;67943;54.412;9.502;2023-02-23T10:50:47;101167.28;;;8.16;77.97
78623;BME280;67943;54.412;9.502;2023-02-23T10:56:04;101162.91;;;8.17;78.29
78623;BME280;67943;54.412;9.502;2023-02-23T11:01:08;101168.91;;;8.40;77.98
78623;BME280;67943;54.412;9.502;2023-02-23T11:06:35;101164.38;;;8.65;76.46
78623;BME280;67943;54.412;9.502;2023-02-23T11:11:38;101160.72;;;8.86;76.20
78623;BME280;67943;54.412;9.502;2023-02-23T11:16:39;101159.97;;;9.56;73.54
78623;BME280;67943;54.412;9.502;2023-02-23T11:21:39;101155.78;;;10.10;71.26
78623;BME280;67943;54.412;9.502;2023-02-23T11:26:42;101148.25;;;9.82;71.62
78623;BME280;67943;54.412;9.502;2023-02-23T11:31:52;101143.34;;;9.55;71.86
78623;BME280;67943;54.412;9.502;2023-02-23T11:36:59;101147.25;;;9.22;73.06
78623;BME280;67943;54.412;9.502;2023-02-23T11:42:17;101143.78;;;9.19;73.76
78623;BME280;67943;54.412;9.502;2023-02-23T11:47:20;101142.13;;;9.05;73.82
78623;BME280;67943;54.412;9.502;2023-02-23T11:52:23;101132.44;;;9.12;73.65
78623;BME280;67943;54.412;9.502;2023-02-23T11:57:32;101131.63;;;9.07;73.59
78623;BME280;67943;54.412;9.502;2023-02-23T12:02:46;101140.28;;;9.18;74.09
78623;BME280;67943;54.412;9.502;2023-02-23T12:07:53;101126.88;;;9.42;73.46
78623;BME280;67943;54.412;9.502;2023-02-23T12:13:22;101131.06;;;9.57;73.26
78623;BME280;67943;54.412;9.502;2023-02-23T12:18:39;101119.78;;;9.51;72.86
78623;BME280;67943;54.412;9.502;2023-02-23T12:23:44;101129.56;;;9.36;72.50
78623;BME280;67943;54.412;9.502;2023-02-23T12:29:03;101136.09;;;8.96;73.60
78623;BME280;67943;54.412;9.502;2023-02-23T12:34:21;101128.38;;;8.82;75.05
78623;BME280;67943;54.412;9.502;2023-02-23T12:39:37;101129.25;;;8.83;74.78
78623;BME280;67943;54.412;9.502;2023-02-23T12:44:51;101127.56;;;8.72;74.86
78623;BME280;67943;54.412;9.502;2023-02-23T12:50:00;101132.88;;;8.66;75.24
78623;BME280;67943;54.412;9.502;2023-02-23T12:55:11;101139.97;;;8.57;75.67
78623;BME280;67943;54.412;9.502;2023-02-23T13:05:40;101137.31;;;8.60;75.97
78623;BME280;67943;54.412;9.502;2023-02-23T13:10:50;101124.31;;;8.44;76.65
78623;BME280;67943;54.412;9.502;2023-02-23T13:16:15;101116.34;;;8.57;76.94
78623;BME280;67943;54.412;9.502;2023-02-23T13:21:27;101121.44;;;8.73;76.61
78623;BME280;67943;54.412;9.502;2023-02-23T13:31:35;101119.66;;;8.78;77.11
78623;BME280;67943;54.412;9.502;2023-02-23T13:36:36;101118.91;;;8.66;76.43
78623;BME280;67943;54.412;9.502;2023-02-23T13:41:48;101113.69;;;8.64;76.40
78623;BME280;67943;54.412;9.502;2023-02-23T13:52:00;101115.56;;;8.47;76.74
78623;BME280;67943;54.412;9.502;2023-02-23T13:57:14;101123.53;;;8.33;77.88
78623;BME280;67943;54.412;9.502;2023-02-23T14:07:27;101139.34;;;8.17;77.19
78623;BME280;67943;54.412;9.502;2023-02-23T14:13:03;101141.97;;;8.15;77.33
78623;BME280;67943;54.412;9.502;2023-02-23T14:18:31;101141.19;;;8.02;75.59
78623;BME280;67943;54.412;9.502;2023-02-23T14:23:33;101139.47;;;7.94;72.07
78623;BME280;67943;54.412;9.502;2023-02-23T14:28:36;101150.84;;;7.85;70.78
78623;BME280;67943;54.412;9.502;2023-02-23T14:38:44;101157.97;;;7.53;69.08
78623;BME280;67943;54.412;9.502;2023-02-23T14:43:45;101158.91;;;7.47;68.96
78623;BME280;67943;54.412;9.502;2023-02-23T14:49:04;101158.06;;;7.28;68.94
78623;BME280;67943;54.412;9.502;2023-02-23T14:59:59;101164.22;;;7.09;66.00
78623;BME280;67943;54.412;9.502;2023-02-23T15:05:33;101163.34;;;6.95;66.06
78623;BME280;67943;54.412;9.502;2023-02-23T15:10:38;101173.81;;;6.95;65.81
78623;BME280;67943;54.412;9.502;2023-02-23T15:15:41;101168.59;;;6.83;65.63
78623;BME280;67943;54.412;9.502;2023-02-23T15:20:44;101163.38;;;6.80;64.99
78623;BME280;67943;54.412;9.502;2023-02-23T15:25:45;101165.97;;;6.66;65.55
78623;BME280;67943;54.412;9.502;2023-02-23T15:30:58;101173.84;;;6.61;66.06
78623;BME280;67943;54.412;9.502;2023-02-23T15:36:26;101175.56;;;6.76;66.80
78623;BME280;67943;54.412;9.502;2023-02-23T15:41:31;101172.06;;;6.68;65.55
78623;BME280;67943;54.412;9.502;2023-02-23T15:46:34;101175.56;;;6.56;66.36
78623;BME280;67943;54.412;9.502;2023-02-23T15:51:39;101182.53;;;6.48;66.63
78623;BME280;67943;54.412;9.502;2023-02-23T15:56:47;101180.75;;;6.23;66.02
78623;BME280;67943;54.412;9.502;2023-02-23T16:01:52;101187.66;;;5.99;66.34
78623;BME280;67943;54.412;9.502;2023-02-23T16:07:06;101184.91;;;5.83;66.73
78623;BME280;67943;54.412;9.502;2023-02-23T16:17:24;101204.75;;;5.42;67.83
78623;BME280;67943;54.412;9.502;2023-02-23T16:22:26;101192.53;;;5.37;67.66
78623;BME280;67943;54.412;9.502;2023-02-23T16:27:28;101183.69;;;5.12;67.88
78623;BME280;67943;54.412;9.502;2023-02-23T16:32:34;101188.91;;;5.12;67.75
78623;BME280;67943;54.412;9.502;2023-02-23T16:37:54;101194.78;;;4.84;68.19
78623;BME280;67943;54.412;9.502;2023-02-23T16:42:56;101200.78;;;4.75;67.97
78623;BME280;67943;54.412;9.502;2023-02-23T16:47:58;101200.69;;;4.64;68.36
78623;BME280;67943;54.412;9.502;2023-02-23T16:53:01;101211.06;;;4.58;68.12
78623;BME280;67943;54.412;9.502;2023-02-23T16:58:02;101212.63;;;4.41;67.89
78623;BME280;67943;54.412;9.502;2023-02-23T17:03:13;101208.22;;;4.32;68.32
78623;BME280;67943;54.412;9.502;2023-02-23T17:08:15;101206.28;;;4.15;67.52
78623;BME280;67943;54.412;9.502;2023-02-23T17:13:21;101203.66;;;4.15;67.06
78623;BME280;67943;54.412;9.502;2023-02-23T17:18:24;101213.03;;;3.97;66.89
78623;BME280;67943;54.412;9.502;2023-02-23T17:23:27;101205.81;;;3.77;67.36
78623;BME280;67943;54.412;9.502;2023-02-23T17:28:37;101197.31;;;3.90;66.64
78623;BME280;67943;54.412;9.502;2023-02-23T17:33:47;101211.09;;;3.83;66.84
78623;BME280;67943;54.412;9.502;2023-02-23T17:38:48;101205.81;;;3.73;66.97
78623;BME280;67943;54.412;9.502;2023-02-23T17:43:48;101203.84;;;3.57;66.84
78623;BME280;67943;54.412;9.502;2023-02-23T17:48:49;101199.50;;;3.58;66.89
78623;BME280;67943;54.412;9.502;2023-02-23T17:53:49;101211.59;;;3.54;66.38
78623;BME280;67943;54.412;9.502;2023-02-23T17:58:49;101218.44;;;3.46;66.50
78623;BME280;67943;54.412;9.502;2023-02-23T18:03:50;101216.78;;;3.53;66.33
78623;BME280;67943;54.412;9.502;2023-02-23T18:08:50;101208.22;;;3.60;65.97
78623;BME280;67943;54.412;9.502;2023-02-23T18:13:51;101212.81;;;3.81;65.89
78623;BME280;67943;54.412;9.502;2023-02-23T18:24:08;101211.41;;;4.08;65.87
78623;BME280;67943;54.412;9.502;2023-02-23T18:29:09;101205.50;;;4.22;65.57
78623;BME280;67943;54.412;9.502;2023-02-23T18:34:09;101199.44;;;4.24;65.87
78623;BME280;67943;54.412;9.502;2023-02-23T18:39:11;101206.50;;;4.33;65.83
78623;BME280;67943;54.412;9.502;2023-02-23T18:44:12;101212.59;;;4.38;65.99
78623;BME280;67943;54.412;9.502;2023-02-23T18:49:14;101209.19;;;4.44;66.02
78623;BME280;67943;54.412;9.502;2023-02-23T18:54:15;101215.31;;;4.47;66.77
78623;BME280;67943;54.412;9.502;2023-02-23T18:59:17;101207.59;;;4.56;66.13
78623;BME280;67943;54.412;9.502;2023-02-23T19:04:18;101210.09;;;4.49;66.08
78623;BME280;67943;54.412;9.502;2023-02-23T19:09:18;101200.59;;;4.52;65.90
78623;BME280;67943;54.412;9.502;2023-02-23T19:14:20;101195.44;;;4.58;65.75
78623;BME280;67943;54.412;9.502;2023-02-23T19:19:21;101190.16;;;4.52;63.85
78623;BME280;67943;54.412;9.502;2023-02-23T19:24:22;101196.16;;;4.44;64.05
78623;BME280;67943;54.412;9.502;2023-02-23T19:29:22;101195.38;;;4.52;64.11
78623;BME280;67943;54.412;9.502;2023-02-23T19:34:28;101195.28;;;4.43;63.40
78623;BME280;67943;54.412;9.502;2023-02-23T19:39:28;101190.03;;;4.40;63.39
78623;BME280;67943;54.412;9.502;2023-02-23T19:44:29;101191.75;;;4.38;63.58
78623;BME280;67943;54.412;9.502;2023-02-23T19:49:29;101189.97;;;4.31;62.08
78623;BME280;67943;54.412;9.502;2023-02-23T19:54:30;101190.81;;;4.28;62.81
78623;BME280;67943;54.412;9.502;2023-02-23T19:59:33;101186.47;;;4.29;62.95
78623;BME280;67943;54.412;9.502;2023-02-23T20:04:33;101182.09;;;4.25;61.98
78623;BME280;67943;54.412;9.502;2023-02-23T20:09:34;101182.06;;;4.23;62.14
78623;BME280;67943;54.412;9.502;2023-02-23T20:14:35;101182.13;;;4.28;62.38
78623;BME280;67943;54.412;9.502;2023-02-23T20:19:36;101171.81;;;4.43;62.43
78623;BME280;67943;54.412;9.502;2023-02-23T20:24:36;101174.31;;;4.28;62.58
78623;BME280;67943;54.412;9.502;2023-02-23T20:29:36;101163.91;;;4.34;61.29
78623;BME280;67943;54.412;9.502;2023-02-23T20:34:37;101170.00;;;4.31;62.01
78623;BME280;67943;54.412;9.502;2023-02-23T20:39:38;101160.47;;;4.36;62.40
78623;BME280;67943;54.412;9.502;2023-02-23T20:44:38;101163.16;;;4.44;63.00
78623;BME280;67943;54.412;9.502;2023-02-23T20:49:39;101156.16;;;4.40;63.74
78623;BME280;67943;54.412;9.502;2023-02-23T20:54:40;101153.59;;;4.45;63.43
78623;BME280;67943;54.412;9.502;2023-02-23T20:59:41;101156.25;;;4.49;63.44
78623;BME280;67943;54.412;9.502;2023-02-23T21:04:43;101158.88;;;4.51;63.30
78623;BME280;67943;54.412;9.502;2023-02-23T21:09:43;101159.84;;;4.63;62.71
78623;BME280;67943;54.412;9.502;2023-02-23T21:14:46;101148.50;;;4.55;62.05
78623;BME280;67943;54.412;9.502;2023-02-23T21:19:47;101156.22;;;4.45;60.85
78623;BME280;67943;54.412;9.502;2023-02-23T21:24:47;101144.91;;;4.44;61.93
78623;BME280;67943;54.412;9.502;2023-02-23T21:29:47;101144.97;;;4.50;62.16
78623;BME280;67943;54.412;9.502;2023-02-23T21:34:51;101148.47;;;4.52;61.92
78623;BME280;67943;54.412;9.502;2023-02-23T21:39:51;101142.34;;;4.49;61.66
78623;BME280;67943;54.412;9.502;2023-02-23T21:44:52;101127.63;;;4.52;61.82
78623;BME280;67943;54.412;9.502;2023-02-23T21:49:52;101126.66;;;4.43;62.65
78623;BME280;67943;54.412;9.502;2023-02-23T21:54:53;101126.78;;;4.56;61.98
78623;BME280;67943;54.412;9.502;2023-02-23T21:59:53;101116.41;;;4.61;61.81
78623;BME280;67943;54.412;9.502;2023-02-23T22:04:54;101114.69;;;4.61;61.49
78623;BME280;67943;54.412;9.502;2023-02-23T22:09:54;101101.59;;;4.55;62.00
78623;BME280;67943;54.412;9.502;2023-02-23T22:14:55;101084.19;;;4.51;61.81
78623;BME280;67943;54.412;9.502;2023-02-23T22:19:55;101076.47;;;4.62;62.30
78623;BME280;67943;54.412;9.502;2023-02-23T22:24:56;101075.56;;;4.64;61.80
78623;BME280;67943;54.412;9.502;2023-02-23T22:29:56;101077.34;;;4.68;62.20
78623;BME280;67943;54.412;9.502;2023-02-23T22:35:00;101066.88;;;4.59;62.46
78623;BME280;67943;54.412;9.502;2023-02-23T22:40:00;101070.38;;;4.64;63.31
78623;BME280;67943;54.412;9.502;2023-02-23T22:45:01;101052.19;;;4.72;64.93
78623;BME280;67943;54.412;9.502;2023-02-23T22:50:01;101049.53;;;4.67;67.67
78623;BME280;67943;54.412;9.502;2023-02-23T22:55:02;101048.56;;;4.49;69.43
78623;BME280;67943;54.412;9.502;2023-02-23T23:00:03;101038.97;;;4.46;70.15
78623;BME280;67943;54.412;9.502;2023-02-23T23:05:12;101020.72;;;4.45;70.46
78623;BME280;67943;54.412;9.502;2023-02-23T23:10:14;101008.53;;;4.39;71.18
78623;BME280;67943;54.412;9.502;2023-02-23T23:15:15;101011.97;;;4.33;71.48
78623;BME280;67943;54.412;9.502;2023-02-23T23:20:18;101006.78;;;4.32;71.32
78623;BME280;67943;54.412;9.502;2023-02-23T23:25:24;100999.81;;;4.32;71.58
78623;BME280;67943;54.412;9.502;2023-02-23T23:30:25;100990.28;;;4.33;71.02
78623;BME280;67943;54.412;9.502;2023-02-23T23:35:28;100976.38;;;4.31;70.65
78623;BME280;67943;54.412;9.502;2023-02-23T23:40:28;100966.78;;;4.25;70.90
78623;BME280;67943;54.412;9.502;2023-02-23T23:45:29;100963.31;;;4.25;70.65
78623;BME280;67943;54.412;9.502;2023-02-23T23:50:30;100946.78;;;4.23;70.42
78623;BME280;67943;54.412;9.502;2023-02-23T23:55:30;100943.28;;;4.19;70.13
